createdAt,value
2023-02-06T00:00:06.827Z,6.00
2023-02-06T00:02:38.847Z,6.35
2023-02-06T00:05:10.936Z,6.32
2023-02-06T00:08:17.596Z,7.07
2023-02-06T00:11:01.890Z,6.60
2023-02-06T00:13:35.759Z,7.15
2023-02-06T00:16:26.824Z,8.30
2023-02-06T00:18:59.906Z,6.30
2023-02-06T00:21:32.177Z,5.88
2023-02-06T00:24:44.161Z,6.32
2023-02-06T00:27:16.160Z,6.82
2023-02-06T00:29:48.268Z,5.57
2023-02-06T00:32:20.392Z,6.97
2023-02-06T00:35:05.037Z,6.93
2023-02-06T00:37:37.044Z,5.95
2023-02-06T00:40:37.808Z,5.38
2023-02-06T00:43:09.849Z,6.68
2023-02-06T00:46:04.401Z,7.38
2023-02-06T00:48:36.965Z,5.40
2023-02-06T00:54:29.705Z,5.28
2023-02-06T00:57:01.763Z,5.05
2023-02-06T00:59:33.717Z,5.45
2023-02-06T01:02:08.748Z,5.90
2023-02-06T01:04:40.843Z,6.63
2023-02-06T01:07:12.896Z,5.50
2023-02-06T01:09:44.886Z,6.43
2023-02-06T01:12:16.852Z,5.38
2023-02-06T01:14:49.417Z,5.30
2023-02-06T01:17:21.670Z,6.13
2023-02-06T01:21:06.076Z,5.25
2023-02-06T01:23:41.996Z,5.85
2023-02-06T01:26:34.573Z,6.10
2023-02-06T01:29:06.563Z,6.47
2023-02-06T01:31:38.649Z,5.75
2023-02-06T01:34:10.686Z,6.50
2023-02-06T01:37:07.103Z,5.45
2023-02-06T01:39:39.119Z,6.35
2023-02-06T01:42:13.803Z,6.57
2023-02-06T01:44:45.839Z,5.65
2023-02-06T01:47:18.547Z,5.57
2023-02-06T01:49:51.335Z,5.85
2023-02-06T01:52:32.892Z,7.32
2023-02-06T01:55:06.123Z,5.28
2023-02-06T01:58:34.220Z,5.25
2023-02-06T02:01:07.583Z,6.30
2023-02-06T02:03:44.760Z,7.47
2023-02-06T02:07:03.411Z,6.03
2023-02-06T02:09:35.914Z,6.43
2023-02-06T02:12:07.925Z,6.43
2023-02-06T02:14:43.489Z,5.93
2023-02-06T02:18:05.221Z,6.72
2023-02-06T02:21:12.339Z,6.03
2023-02-06T02:23:54.738Z,5.45
2023-02-06T02:26:43.652Z,5.38
2023-02-06T02:29:15.615Z,6.20
2023-02-06T02:32:05.858Z,5.47
2023-02-06T02:37:39.776Z,6.20
2023-02-06T02:43:14.612Z,6.38
2023-02-06T02:46:03.414Z,5.10
2023-02-06T02:48:41.143Z,6.35
2023-02-06T02:51:13.846Z,6.25
2023-02-06T02:53:46.184Z,6.20
2023-02-06T02:56:22.882Z,6.68
2023-02-06T02:59:29.942Z,6.50
2023-02-06T03:02:08.170Z,6.25
2023-02-06T03:04:48.597Z,5.85
2023-02-06T03:07:44.485Z,5.57
2023-02-06T03:13:30.498Z,6.45
2023-02-06T03:16:42.295Z,6.32
2023-02-06T03:19:26.709Z,6.53
2023-02-06T03:21:59.188Z,6.82
2023-02-06T03:24:37.464Z,6.35
2023-02-06T03:27:14.408Z,5.60
2023-02-06T03:29:57.949Z,5.78
2023-02-06T03:32:35.379Z,5.85
2023-02-06T03:35:43.351Z,6.65
2023-02-06T03:38:15.924Z,6.80
2023-02-06T03:40:49.222Z,6.07
2023-02-06T03:43:25.495Z,7.28
2023-02-06T03:46:02.981Z,6.85
2023-02-06T03:48:40.751Z,5.45
2023-02-06T03:51:19.425Z,6.72
2023-02-06T03:54:08.264Z,5.30
2023-02-06T03:56:54.025Z,6.75
2023-02-06T03:59:27.575Z,6.00
2023-02-06T04:02:03.100Z,6.03
2023-02-06T04:04:39.496Z,5.45
2023-02-06T04:07:26.743Z,6.13
2023-02-06T04:09:58.771Z,6.60
2023-02-06T04:12:31.745Z,7.05
2023-02-06T04:15:04.551Z,5.50
2023-02-06T04:17:53.613Z,5.47
2023-02-06T04:20:29.979Z,6.68
2023-02-06T04:23:01.936Z,5.20
2023-02-06T04:25:34.856Z,5.70
2023-02-06T04:28:07.075Z,6.50
2023-02-06T04:30:39.408Z,7.70
2023-02-06T04:33:11.389Z,8.77
2023-02-06T04:35:43.391Z,8.98
2023-02-06T04:38:15.586Z,10.20
2023-02-06T04:40:47.554Z,8.68
2023-02-06T04:44:05.260Z,11.30
2023-02-06T04:46:37.262Z,13.60
2023-02-06T04:49:10.700Z,13.20
2023-02-06T04:52:06.122Z,13.43
2023-02-06T04:54:38.128Z,13.98
2023-02-06T04:57:16.145Z,16.67
2023-02-06T05:00:02.642Z,14.05
2023-02-06T05:02:39.805Z,15.50
2023-02-06T05:05:12.151Z,18.38
2023-02-06T05:07:44.127Z,20.10
2023-02-06T05:10:16.359Z,17.15
2023-02-06T05:12:50.955Z,15.77
2023-02-06T05:15:23.196Z,15.02
2023-02-06T05:17:55.192Z,14.77
2023-02-06T05:20:27.392Z,18.27
2023-02-06T05:22:59.716Z,15.45
2023-02-06T05:25:31.733Z,17.38
2023-02-06T05:28:22.853Z,16.70
2023-02-06T05:31:08.432Z,16.15
2023-02-06T05:33:45.360Z,17.17
2023-02-06T05:36:18.466Z,16.10
2023-02-06T05:38:51.263Z,15.40
2023-02-06T05:41:31.650Z,14.85
2023-02-06T05:44:03.836Z,14.23
2023-02-06T05:46:35.811Z,14.07
2023-02-06T05:49:07.805Z,13.18
2023-02-06T05:51:39.755Z,14.35
2023-02-06T05:54:11.996Z,13.52
2023-02-06T05:56:45.431Z,14.00
2023-02-06T05:59:17.597Z,14.32
2023-02-06T06:01:49.582Z,14.02
2023-02-06T06:04:21.670Z,14.25
2023-02-06T06:06:53.633Z,14.63
2023-02-06T06:10:08.169Z,13.40
2023-02-06T06:12:40.235Z,12.10
2023-02-06T06:15:12.394Z,14.30
2023-02-06T06:17:44.452Z,15.55
2023-02-06T06:20:17.040Z,14.70
2023-02-06T06:22:49.165Z,15.02
2023-02-06T06:25:21.598Z,16.35
2023-02-06T06:27:53.774Z,16.63
2023-02-06T06:30:25.770Z,16.52
2023-02-06T06:32:57.748Z,16.75
2023-02-06T06:35:33.335Z,15.60
2023-02-06T06:38:05.323Z,15.35
2023-02-06T06:40:37.451Z,15.55
2023-02-06T06:43:09.413Z,17.13
2023-02-06T06:45:41.389Z,16.08
2023-02-06T06:48:13.540Z,15.95
2023-02-06T06:50:45.618Z,16.42
2023-02-06T06:53:24.806Z,14.55
2023-02-06T06:56:04.155Z,16.85
2023-02-06T07:02:06.046Z,17.15
2023-02-06T07:04:38.065Z,18.55
2023-02-06T07:07:35.437Z,19.92
2023-02-06T07:10:09.107Z,18.15
2023-02-06T07:12:41.448Z,17.15
2023-02-06T07:18:22.330Z,18.23
2023-02-06T07:20:54.348Z,17.25
2023-02-06T07:23:29.584Z,16.58
2023-02-06T07:26:02.454Z,17.75
2023-02-06T07:28:34.593Z,17.20
2023-02-06T07:31:08.210Z,16.40
2023-02-06T07:33:40.181Z,18.15
2023-02-06T07:36:14.358Z,17.55
2023-02-06T07:41:39.633Z,16.48
2023-02-06T07:44:11.803Z,18.08
2023-02-06T07:46:44.911Z,17.90
2023-02-06T07:49:16.901Z,18.25
2023-02-06T07:51:49.139Z,19.52
2023-02-06T07:54:21.235Z,19.17
2023-02-06T07:56:53.220Z,19.67
2023-02-06T07:59:25.622Z,19.60
2023-02-06T08:01:58.435Z,18.13
2023-02-06T08:04:35.278Z,18.50
2023-02-06T08:07:16.260Z,17.30
2023-02-06T08:09:48.271Z,17.00
2023-02-06T08:12:20.304Z,17.55
2023-02-06T08:14:52.376Z,15.13
2023-02-06T08:17:24.733Z,15.15
2023-02-06T08:19:56.739Z,15.13
2023-02-06T08:22:30.309Z,16.13
2023-02-06T08:25:02.373Z,15.15
2023-02-06T08:27:34.359Z,15.63
2023-02-06T08:30:07.111Z,14.48
2023-02-06T08:32:39.390Z,13.35
2023-02-06T08:38:08.974Z,14.35
2023-02-06T08:40:40.937Z,13.73
2023-02-06T08:43:12.992Z,14.20
2023-02-06T08:45:52.272Z,14.88
2023-02-06T08:49:07.516Z,13.00
2023-02-06T08:51:39.513Z,15.70
2023-02-06T08:54:16.179Z,13.05
2023-02-06T08:56:49.970Z,13.05
2023-02-06T08:59:22.253Z,12.90
2023-02-06T09:01:54.228Z,13.77
2023-02-06T09:04:31.922Z,15.18
2023-02-06T09:07:04.117Z,12.82
2023-02-06T09:09:36.167Z,12.55
2023-02-06T09:12:31.766Z,11.63
2023-02-06T09:15:20.227Z,13.00
2023-02-06T09:17:58.836Z,12.48
2023-02-06T09:20:30.877Z,12.63
2023-02-06T09:23:02.986Z,15.07
2023-02-06T09:25:35.539Z,12.82
2023-02-06T09:28:38.216Z,13.65
2023-02-06T09:31:10.896Z,13.27
2023-02-06T09:33:42.983Z,12.63
2023-02-06T09:36:20.855Z,12.48
2023-02-06T09:38:54.045Z,13.00
2023-02-06T09:41:43.908Z,12.45
2023-02-06T09:44:22.942Z,11.73
2023-02-06T09:47:06.273Z,15.30
2023-02-06T09:49:57.787Z,14.20
2023-02-06T09:53:07.445Z,13.93
2023-02-06T09:55:46.438Z,12.48
2023-02-06T09:58:35.200Z,13.23
2023-02-06T10:01:46.910Z,12.30
2023-02-06T10:04:57.799Z,12.10
2023-02-06T10:07:37.400Z,11.10
2023-02-06T10:10:38.196Z,10.25
2023-02-06T10:13:20.084Z,10.48
2023-02-06T10:15:59.640Z,10.32
2023-02-06T10:18:54.794Z,10.02
2023-02-06T10:21:39.031Z,10.18
2023-02-06T10:24:14.054Z,9.45
2023-02-06T10:26:48.182Z,10.85
2023-02-06T10:29:32.169Z,10.73
2023-02-06T10:32:40.136Z,9.77
2023-02-06T10:36:23.349Z,10.75
2023-02-06T10:39:43.069Z,9.20
2023-02-06T10:42:41.192Z,11.05
2023-02-06T10:45:36.085Z,11.18
2023-02-06T10:48:30.865Z,11.70
2023-02-06T10:51:37.851Z,10.27
2023-02-06T10:54:19.778Z,11.85
2023-02-06T10:56:54.839Z,8.85
2023-02-06T10:59:53.579Z,11.25
2023-02-06T11:05:50.132Z,9.65
2023-02-06T11:08:26.667Z,11.02
2023-02-06T11:10:58.981Z,8.00
2023-02-06T11:13:37.340Z,8.35
2023-02-06T11:16:16.514Z,10.23
2023-02-06T11:18:50.262Z,9.50
2023-02-06T11:21:51.146Z,9.80
2023-02-06T11:24:25.518Z,7.85
2023-02-06T11:27:20.599Z,8.40
2023-02-06T11:29:52.826Z,9.13
2023-02-06T11:32:52.700Z,10.05
2023-02-06T11:35:46.393Z,8.50
2023-02-06T11:38:25.605Z,9.32
2023-02-06T11:41:09.392Z,11.48
2023-02-06T11:43:41.275Z,10.00
2023-02-06T11:46:20.302Z,10.85
2023-02-06T11:49:07.647Z,9.77
2023-02-06T11:51:56.788Z,10.82
2023-02-06T11:54:36.089Z,10.10
2023-02-06T11:57:23.181Z,9.65
2023-02-06T11:59:59.906Z,9.27
2023-02-06T12:02:39.039Z,11.40
2023-02-06T12:05:17.590Z,8.10
2023-02-06T12:08:13.178Z,8.70
2023-02-06T12:11:00.087Z,8.32
2023-02-06T12:13:43.275Z,7.28
2023-02-06T12:16:15.606Z,6.75
2023-02-06T12:18:55.201Z,7.72
2023-02-06T12:37:26.984Z,11.15
2023-02-06T12:40:00.633Z,9.63
2023-02-06T12:42:43.899Z,9.32
2023-02-06T12:46:01.371Z,8.10
2023-02-06T12:49:03.075Z,8.55
2023-02-06T12:51:40.464Z,9.77
2023-02-06T12:54:26.564Z,9.30
2023-02-06T12:57:13.985Z,8.68
2023-02-06T13:00:28.930Z,7.60
2023-02-06T13:03:26.122Z,7.97
2023-02-06T13:06:16.129Z,7.47
2023-02-06T13:08:59.782Z,6.72
2023-02-06T13:11:40.574Z,7.38
2023-02-06T13:14:28.471Z,6.07
2023-02-06T13:17:11.925Z,7.32
2023-02-06T13:19:43.998Z,6.68
2023-02-06T13:22:44.877Z,8.18
2023-02-06T13:25:26.299Z,6.25
2023-02-06T13:31:41.573Z,6.85
2023-02-06T13:34:17.632Z,5.80
2023-02-06T13:36:59.688Z,6.07
2023-02-06T13:39:33.462Z,7.43
2023-02-06T13:42:35.713Z,7.40
2023-02-06T13:45:17.474Z,6.68
2023-02-06T13:48:28.627Z,5.22
2023-02-06T13:51:24.646Z,5.30
2023-02-06T13:54:45.175Z,6.10
2023-02-06T13:57:38.204Z,5.53
2023-02-06T14:00:23.655Z,4.82
2023-02-06T14:03:29.741Z,5.38
2023-02-06T14:06:17.515Z,5.10
2023-02-06T14:09:08.938Z,4.80
2023-02-06T14:12:29.039Z,4.95
2023-02-06T14:15:46.160Z,5.50
2023-02-06T14:18:20.893Z,4.90
2023-02-06T14:21:20.866Z,5.07
2023-02-06T14:24:39.147Z,6.07
2023-02-06T14:27:49.768Z,5.25
2023-02-06T14:30:47.974Z,5.93
2023-02-06T14:33:40.641Z,4.60
2023-02-06T14:36:25.780Z,5.35
2023-02-06T14:39:08.387Z,5.70
2023-02-06T14:41:40.630Z,5.80
2023-02-06T14:44:22.015Z,5.60
2023-02-06T14:46:54.048Z,6.28
2023-02-06T14:49:36.344Z,5.45
2023-02-06T14:52:19.101Z,5.13
2023-02-06T14:54:51.751Z,5.68
2023-02-06T14:57:30.830Z,5.38
2023-02-06T15:00:18.617Z,5.60
2023-02-06T15:03:26.737Z,6.55
2023-02-06T15:06:09.053Z,5.05
2023-02-06T15:08:50.068Z,4.30
2023-02-06T15:11:32.692Z,4.43
2023-02-06T15:14:24.827Z,4.10
2023-02-06T15:16:59.828Z,4.30
2023-02-06T15:19:35.574Z,5.70
2023-02-06T15:22:52.596Z,4.85
2023-02-06T15:25:36.635Z,5.13
2023-02-06T15:28:26.875Z,5.28
2023-02-06T15:31:21.306Z,5.35
2023-02-06T15:33:57.725Z,4.53
2023-02-06T15:37:45.797Z,5.47
2023-02-06T15:40:31.046Z,5.10
2023-02-06T15:43:03.806Z,4.93
2023-02-06T15:45:39.672Z,6.13
2023-02-06T15:48:24.870Z,6.28
2023-02-06T15:52:03.892Z,5.75
2023-02-06T15:54:35.943Z,6.55
2023-02-06T15:57:34.496Z,5.47
2023-02-06T16:00:23.520Z,6.00
2023-02-06T16:03:16.865Z,7.68
2023-02-06T16:05:49.217Z,6.82
2023-02-06T16:08:35.617Z,6.15
2023-02-06T16:11:30.875Z,5.88
2023-02-06T16:14:03.703Z,6.28
2023-02-06T16:16:36.872Z,5.97
2023-02-06T16:19:35.809Z,6.03
2023-02-06T16:22:24.694Z,5.35
2023-02-06T16:25:31.205Z,5.68
2023-02-06T16:28:03.248Z,6.63
2023-02-06T16:30:36.749Z,6.40
2023-02-06T16:33:26.132Z,7.22
2023-02-06T16:35:58.095Z,6.60
2023-02-06T16:38:30.340Z,8.27
2023-02-06T16:41:02.472Z,8.18
2023-02-06T16:43:34.688Z,7.53
2023-02-06T16:46:06.837Z,8.23
2023-02-06T16:48:40.681Z,7.95
2023-02-06T16:51:17.383Z,9.48
2023-02-06T16:53:50.471Z,11.23
2023-02-06T16:56:22.482Z,9.48
2023-02-06T16:58:56.463Z,8.82
2023-02-06T17:01:29.802Z,9.35
2023-02-06T17:04:01.878Z,11.02
2023-02-06T17:06:35.461Z,10.95
2023-02-06T17:09:11.037Z,11.27
2023-02-06T17:11:43.095Z,11.70
2023-02-06T17:17:03.504Z,11.10
2023-02-06T17:19:49.692Z,12.00
2023-02-06T17:22:21.773Z,11.50
2023-02-06T17:24:53.951Z,12.25
2023-02-06T17:27:26.021Z,14.48
2023-02-06T17:29:58.017Z,15.32
2023-02-06T17:32:30.031Z,13.23
2023-02-06T17:35:02.626Z,13.15
2023-02-06T17:37:34.683Z,12.80
2023-02-06T17:40:08.150Z,12.63
2023-02-06T17:42:40.216Z,15.10
2023-02-06T17:45:12.949Z,13.32
2023-02-06T17:47:45.316Z,13.18
2023-02-06T17:50:23.240Z,13.80
2023-02-06T17:52:57.514Z,12.57
2023-02-06T17:55:29.641Z,13.68
2023-02-06T17:58:04.356Z,14.60
2023-02-06T18:00:36.827Z,14.65
2023-02-06T18:03:17.198Z,16.25
2023-02-06T18:05:58.316Z,13.65
2023-02-06T18:08:30.693Z,15.75
2023-02-06T18:11:16.789Z,16.02
2023-02-06T18:13:50.313Z,16.95
2023-02-06T18:16:46.291Z,18.98
2023-02-06T18:19:23.912Z,19.25
2023-02-06T18:22:15.945Z,20.95
2023-02-06T18:24:49.672Z,18.48
2023-02-06T18:27:23.351Z,21.08
2023-02-06T18:29:55.620Z,19.45
2023-02-06T18:32:28.669Z,19.83
2023-02-06T18:35:00.863Z,19.55
2023-02-06T18:40:43.175Z,19.33
2023-02-06T18:43:46.001Z,18.58
2023-02-06T18:46:48.747Z,18.77
2023-02-06T18:49:20.842Z,19.65
2023-02-06T18:51:52.852Z,18.52
2023-02-06T18:54:25.049Z,18.50
2023-02-06T18:57:18.690Z,20.00
2023-02-06T18:59:51.469Z,18.90
2023-02-06T19:02:23.977Z,20.35
2023-02-06T19:05:00.797Z,18.35
2023-02-06T19:07:33.095Z,19.83
2023-02-06T19:10:10.837Z,19.92
2023-02-06T19:12:43.080Z,21.08
2023-02-06T19:15:17.787Z,23.23
2023-02-06T19:17:50.327Z,21.00
2023-02-06T19:20:22.344Z,21.98
2023-02-06T19:22:55.236Z,20.35
2023-02-06T19:25:27.298Z,21.90
2023-02-06T19:27:59.347Z,21.67
2023-02-06T19:30:32.570Z,21.98
2023-02-06T19:33:04.740Z,23.48
2023-02-06T19:35:41.062Z,25.58
2023-02-06T19:38:13.145Z,26.35
2023-02-06T19:40:47.579Z,26.60
2023-02-06T19:43:20.032Z,25.70
2023-02-06T19:45:52.808Z,21.85
2023-02-06T19:48:24.927Z,21.23
2023-02-06T19:51:09.120Z,20.85
2023-02-06T19:53:45.915Z,20.85
2023-02-06T19:56:31.013Z,20.65
2023-02-06T19:59:07.867Z,19.92
2023-02-06T20:01:39.979Z,20.77
2023-02-06T20:04:12.705Z,21.20
2023-02-06T20:06:44.938Z,19.23
2023-02-06T20:10:19.635Z,18.90
2023-02-06T20:13:31.700Z,19.13
2023-02-06T20:16:10.806Z,18.00
2023-02-06T20:18:42.791Z,19.23
2023-02-06T20:22:17.631Z,17.85
2023-02-06T20:24:51.564Z,16.75
2023-02-06T20:27:23.549Z,19.75
2023-02-06T20:29:55.575Z,17.95
2023-02-06T20:32:27.786Z,18.00
2023-02-06T20:35:00.056Z,18.58
2023-02-06T20:38:15.991Z,17.35
2023-02-06T20:40:51.788Z,16.88
2023-02-06T20:46:44.790Z,17.15
2023-02-06T20:49:25.141Z,16.42
2023-02-06T20:51:57.637Z,16.67
2023-02-06T20:54:30.900Z,16.35
2023-02-06T20:57:03.426Z,16.52
2023-02-06T20:59:35.472Z,16.38
2023-02-06T21:02:10.619Z,16.02
2023-02-06T21:04:42.962Z,16.20
2023-02-06T21:11:01.704Z,17.58
2023-02-06T21:13:35.102Z,18.60
2023-02-06T21:16:08.378Z,16.80
2023-02-06T21:18:42.854Z,18.17
2023-02-06T21:21:15.571Z,17.40
2023-02-06T21:23:48.129Z,17.60
2023-02-06T21:26:20.301Z,18.23
2023-02-06T21:28:52.838Z,17.27
2023-02-06T21:31:36.910Z,18.02
2023-02-06T21:34:25.898Z,19.30
2023-02-06T21:36:58.009Z,17.63
2023-02-06T21:39:45.565Z,17.65
2023-02-06T21:42:20.570Z,18.00
2023-02-06T21:44:52.843Z,19.88
2023-02-06T21:47:24.823Z,22.90
2023-02-06T21:49:56.832Z,21.20
2023-02-06T21:52:42.669Z,19.05
2023-02-06T21:55:15.150Z,18.45
2023-02-06T21:57:47.237Z,19.02
2023-02-06T22:00:20.041Z,18.02
2023-02-06T22:02:52.154Z,17.27
2023-02-06T22:05:24.207Z,18.13
2023-02-06T22:07:58.365Z,18.35
2023-02-06T22:10:30.757Z,18.63
2023-02-06T22:13:05.273Z,19.23
2023-02-06T22:15:37.719Z,19.13
2023-02-06T22:18:10.266Z,19.08
2023-02-06T22:20:42.301Z,17.95
2023-02-06T22:23:14.653Z,18.27
2023-02-06T22:25:48.148Z,18.75
2023-02-06T22:28:20.262Z,19.17
2023-02-06T22:30:52.655Z,17.67
2023-02-06T22:33:24.751Z,15.88
2023-02-06T22:35:56.722Z,16.83
2023-02-06T22:38:28.761Z,19.08
2023-02-06T22:41:07.332Z,17.77
2023-02-06T22:43:40.004Z,17.15
2023-02-06T22:46:26.816Z,16.00
2023-02-06T22:48:59.726Z,16.85
2023-02-06T22:51:32.853Z,16.05
2023-02-06T22:54:10.153Z,17.98
2023-02-06T22:56:43.622Z,16.58
2023-02-06T22:59:27.210Z,15.82
2023-02-06T23:01:59.364Z,16.42
2023-02-06T23:04:35.102Z,15.00
2023-02-06T23:07:07.639Z,15.60
2023-02-06T23:09:40.655Z,15.55
2023-02-06T23:12:13.803Z,15.98
2023-02-06T23:14:48.871Z,16.08
2023-02-06T23:17:21.069Z,15.88
2023-02-06T23:19:53.308Z,15.35
2023-02-06T23:22:25.609Z,15.93
2023-02-06T23:24:57.731Z,16.23
2023-02-06T23:27:30.416Z,16.40
2023-02-06T23:30:02.473Z,16.55
2023-02-06T23:32:34.551Z,14.77
2023-02-06T23:35:07.097Z,15.50
2023-02-06T23:37:39.925Z,15.88
2023-02-06T23:40:12.123Z,15.00
2023-02-06T23:42:44.345Z,14.88
2023-02-06T23:45:16.556Z,16.40
2023-02-06T23:47:51.379Z,16.60
2023-02-06T23:50:25.040Z,15.43
2023-02-06T23:52:57.094Z,14.65
2023-02-06T23:55:31.735Z,15.85
2023-02-06T23:58:04.360Z,15.68
